Time;durP1;ratioP1;P1;durP2;ratioP2;P2;SDS_P1;SDS_P2;PMS_P1;PMS_P2;Temp;Humidity;BMP_temperature;BMP_pressure;BME280_temperature;BME280_humidity;BME280_pressure;Samples;Min_cycle;Max_cycle;Signal;HPM_P1;HPM_P2
2022/04/24 00:01:13;;;;;;;;;;;;;;;;;;4993575;28;19956;-68
2022/04/24 00:03:39;;;;;;;;;;;;;;;;;;4996566;28;19920;-68
2022/04/24 00:06:08;;;;;;;;;;;;;;;;;;4980675;28;19994;-67
2022/04/24 00:08:34;;;;;;;;;;;;;;;;;;5000504;28;19940;-68
2022/04/24 00:11:00;;;;;;;;;;;;;;;;;;4999805;28;20472;-68
2022/04/24 00:13:27;;;;;;;;;;;;;;;;;;4973848;28;19916;-67
2022/04/24 00:15:53;;;;;;;;;;;;;;;;;;4978771;28;19917;-68
2022/04/24 00:18:19;;;;;;;;;;;;;;;;;;4995256;28;20008;-68
2022/04/24 00:20:45;;;;;;;;;;;;;;;;;;4999328;28;19982;-68
2022/04/24 00:23:11;;;;;;;;;;;;;;;;;;5000021;28;19939;-69
2022/04/24 00:25:37;;;;;;;;;;;;;;;;;;4997542;28;20896;-68
2022/04/24 00:28:03;;;;;;;;;;;;;;;;;;4999786;28;21130;-68
2022/04/24 00:30:29;;;;;;;;;;;;;;;;;;4998739;28;20196;-68
2022/04/24 00:32:56;;;;;;;;;;;;;;;;;;4982652;28;20779;-68
2022/04/24 00:35:22;;;;;;;;;;;;;;;;;;4979290;28;19913;-68
2022/04/24 00:37:49;;;;;;;;;;;;;;;;;;4999984;28;19916;-67
2022/04/24 00:40:15;;;;;;;;;;;;;;;;;;4984485;28;20434;-67
2022/04/24 00:42:40;;;;;;;;;;;;;;;;;;4998010;28;20351;-67
2022/04/24 00:45:06;;;;;;;;;;;;;;;;;;5002706;28;19936;-67
2022/04/24 00:47:33;;;;;;;;;;;;;;;;;;4999040;28;19948;-68
2022/04/24 00:49:58;;;;;;;;;;;;;;;;;;4987057;28;19924;-68
2022/04/24 00:52:24;;;;;;;;;;;;;;;;;;4977924;28;19917;-68
2022/04/24 00:54:50;;;;;;;;;;;;;;;;;;4986968;28;19913;-68
2022/04/24 00:57:17;;;;;;;;;;;;;;;;;;5001081;28;19921;-66
2022/04/24 00:59:43;;;;;;;;;;;;;;;;;;4991535;28;20274;-70
2022/04/24 01:02:12;;;;;;;;;;;;;;;;;;5005594;28;20462;-71
2022/04/24 01:04:41;;;;;;;;;;;;;;;;;;4987420;28;19956;-70
2022/04/24 01:07:07;;;;;;;;;;;;;;;;;;5015296;28;19917;-70
2022/04/24 01:09:33;;;;;;;;;;;;;;;;;;5007350;28;19924;-69
2022/04/24 01:11:59;;;;;;;;;;;;;;;;;;5007324;28;20298;-69
2022/04/24 01:14:25;;;;;;;;;;;;;;;;;;4986932;28;19913;-68
2022/04/24 01:16:51;;;;;;;;;;;;;;;;;;5011821;28;19939;-70
2022/04/24 01:19:18;;;;;;;;;;;;;;;;;;4985646;28;19913;-70
2022/04/24 01:21:44;;;;;;;;;;;;;;;;;;4999778;28;19912;-70
2022/04/24 01:24:10;;;;;;;;;;;;;;;;;;4999890;28;19912;-69
2022/04/24 01:26:36;;;;;;;;;;;;;;;;;;4999814;28;19924;-69
2022/04/24 01:29:02;;;;;;;;;;;;;;;;;;5009332;28;19920;-68
2022/04/24 01:31:28;;;;;;;;;;;;;;;;;;4991161;28;19920;-68
2022/04/24 01:33:54;;;;;;;;;;;;;;;;;;5015509;28;20362;-68
2022/04/24 01:36:20;;;;;;;;;;;;;;;;;;5010630;28;19972;-67
2022/04/24 01:38:46;;;;;;;;;;;;;;;;;;5000671;28;19999;-67
2022/04/24 01:41:12;;;;;;;;;;;;;;;;;;4991365;28;20485;-66
2022/04/24 01:43:38;;;;;;;;;;;;;;;;;;4984166;28;20336;-67
2022/04/24 01:46:04;;;;;;;;;;;;;;;;;;4993932;28;20294;-67
2022/04/24 01:48:33;;;;;;;;;;;;;;;;;;4977875;28;20233;-67
2022/04/24 01:50:59;;;;;;;;;;;;;;;;;;5013954;28;19913;-67
2022/04/24 01:53:25;;;;;;;;;;;;;;;;;;5006835;28;19917;-67
2022/04/24 01:55:51;;;;;;;;;;;;;;;;;;4989286;28;19960;-67
2022/04/24 01:58:20;;;;;;;;;;;;;;;;;;5002628;28;20020;-67
2022/04/24 02:00:46;;;;;;;;;;;;;;;;;;5001168;28;19913;-67
2022/04/24 02:03:12;;;;;;;;;;;;;;;;;;4987211;28;19936;-67
2022/04/24 02:05:39;;;;;;;;;;;;;;;;;;4979194;28;20371;-67
2022/04/24 02:08:05;;;;;;;;;;;;;;;;;;4996586;28;19934;-67
2022/04/24 02:10:32;;;;;;;;;;;;;;;;;;4985352;28;19920;-67
2022/04/24 02:12:58;;;;;;;;;;;;;;;;;;4997460;28;19916;-66
2022/04/24 02:15:24;;;;;;;;;;;;;;;;;;4995874;28;19990;-67
2022/04/24 02:17:50;;;;;;;;;;;;;;;;;;5010327;28;20122;-67
2022/04/24 02:20:16;;;;;;;;;;;;;;;;;;5002670;28;20395;-67
2022/04/24 02:22:43;;;;;;;;;;;;;;;;;;4994859;28;20390;-67
2022/04/24 02:25:09;;;;;;;;;;;;;;;;;;4985715;28;19952;-67
2022/04/24 02:27:35;;;;;;;;;;;;;;;;;;4999550;28;20419;-67
2022/04/24 02:30:01;;;;;;;;;;;;;;;;;;5006518;28;19919;-67
2022/04/24 02:32:27;;;;;;;;;;;;;;;;;;4992230;28;20011;-68
2022/04/24 02:34:53;;;;;;;;;;;;;;;;;;4996717;28;19919;-66
2022/04/24 02:37:19;;;;;;;;;;;;;;;;;;4989013;28;19917;-66
2022/04/24 02:39:45;;;;;;;;;;;;;;;;;;4979740;28;19916;-66
2022/04/24 02:42:12;;;;;;;;;;;;;;;;;;4996611;28;19920;-67
2022/04/24 02:44:38;;;;;;;;;;;;;;;;;;4993506;28;19970;-67
2022/04/24 02:47:04;;;;;;;;;;;;;;;;;;4991502;28;19917;-67
2022/04/24 02:49:30;;;;;;;;;;;;;;;;;;4992087;28;19913;-68
2022/04/24 02:51:56;;;;;;;;;;;;;;;;;;4993766;28;19924;-67
2022/04/24 02:54:22;;;;;;;;;;;;;;;;;;4972807;28;20205;-67
2022/04/24 02:56:48;;;;;;;;;;;;;;;;;;4983259;28;20358;-67
2022/04/24 02:59:16;;;;;;;;;;;;;;;;;;5002423;28;19913;-67
2022/04/24 03:01:43;;;;;;;;;;;;;;;;;;4982214;28;19913;-67
2022/04/24 03:04:09;;;;;;;;;;;;;;;;;;4999913;28;19916;-67
2022/04/24 03:06:34;;;;;;;;;;;;;;;;;;4995531;28;19917;-67
2022/04/24 03:09:00;;;;;;;;;;;;;;;;;;4983998;28;19920;-66
2022/04/24 03:11:26;;;;;;;;;;;;;;;;;;5003405;28;20363;-66
2022/04/24 03:13:52;;;;;;;;;;;;;;;;;;5005738;28;19920;-66
2022/04/24 03:16:18;;;;;;;;;;;;;;;;;;4999055;28;19917;-67
2022/04/24 03:18:45;;;;;;;;;;;;;;;;;;4999365;28;20528;-66
2022/04/24 03:21:10;;;;;;;;;;;;;;;;;;4978338;28;20230;-66
2022/04/24 03:23:37;;;;;;;;;;;;;;;;;;4995689;28;24866;-67
2022/04/24 03:26:03;;;;;;;;;;;;;;;;;;5002626;28;19913;-65
2022/04/24 03:28:29;;;;;;;;;;;;;;;;;;4985924;28;19912;-67
2022/04/24 03:30:55;;;;;;;;;;;;;;;;;;5002600;28;20484;-68
2022/04/24 03:33:21;;;;;;;;;;;;;;;;;;4998112;28;19917;-67
2022/04/24 03:35:47;;;;;;;;;;;;;;;;;;4997990;28;20024;-68
2022/04/24 03:38:16;;;;;;;;;;;;;;;;;;5005204;28;19928;-68
2022/04/24 03:40:43;;;;;;;;;;;;;;;;;;4991721;28;19913;-68
2022/04/24 03:43:09;;;;;;;;;;;;;;;;;;5002851;28;19916;-68
2022/04/24 03:45:36;;;;;;;;;;;;;;;;;;4983754;28;19948;-68
2022/04/24 03:48:02;;;;;;;;;;;;;;;;;;5004167;28;20423;-68
2022/04/24 03:50:28;;;;;;;;;;;;;;;;;;4999469;28;19927;-67
2022/04/24 03:52:54;;;;;;;;;;;;;;;;;;5000992;28;19916;-67
2022/04/24 03:55:20;;;;;;;;;;;;;;;;;;4999008;28;19913;-67
2022/04/24 03:57:46;;;;;;;;;;;;;;;;;;5005499;28;20480;-67
2022/04/24 04:00:12;;;;;;;;;;;;;;;;;;4985575;28;19958;-67
2022/04/24 04:02:38;;;;;;;;;;;;;;;;;;4999871;28;20585;-67
2022/04/24 04:05:04;;;;;;;;;;;;;;;;;;4980730;28;19919;-67
2022/04/24 04:07:30;;;;;;;;;;;;;;;;;;4998625;28;20270;-67
2022/04/24 04:09:56;;;;;;;;;;;;;;;;;;5004431;28;20369;-67
2022/04/24 04:12:22;;;;;;;;;;;;;;;;;;4980567;28;20158;-67
2022/04/24 04:14:48;;;;;;;;;;;;;;;;;;4980079;28;19913;-68
2022/04/24 04:17:14;;;;;;;;;;;;;;;;;;4998201;28;19964;-66
2022/04/24 04:19:40;;;;;;;;;;;;;;;;;;4974230;28;19950;-68
2022/04/24 04:22:09;;;;;;;;;;;;;;;;;;4985305;28;20302;-65
2022/04/24 04:24:35;;;;;;;;;;;;;;;;;;4995298;28;20283;-66
2022/04/24 04:27:01;;;;;;;;;;;;;;;;;;4993133;28;19920;-64
2022/04/24 04:29:27;;;;;;;;;;;;;;;;;;4974608;28;19917;-64
2022/04/24 04:31:53;;;;;;;;;;;;;;;;;;4978560;28;20112;-64
2022/04/24 04:34:19;;;;;;;;;;;;;;;;;;4973353;28;20482;-63
2022/04/24 04:36:45;;;;;;;;;;;;;;;;;;4994463;28;20332;-64
2022/04/24 04:39:11;;;;;;;;;;;;;;;;;;4991243;28;20375;-64
2022/04/24 04:41:37;;;;;;;;;;;;;;;;;;4972222;28;19923;-64
2022/04/24 04:44:03;;;;;;;;;;;;;;;;;;4998600;28;20074;-65
2022/04/24 04:46:29;;;;;;;;;;;;;;;;;;4992396;28;20744;-66
2022/04/24 04:48:55;;;;;;;;;;;;;;;;;;4996585;28;20374;-64
2022/04/24 04:51:21;;;;;;;;;;;;;;;;;;5000064;28;19996;-65
2022/04/24 04:53:47;;;;;;;;;;;;;;;;;;4995927;28;19958;-64
2022/04/24 04:56:13;;;;;;;;;;;;;;;;;;5002710;28;19984;-64
2022/04/24 04:58:39;;;;;;;;;;;;;;;;;;4997309;28;20029;-64
2022/04/24 05:01:05;;;;;;;;;;;;;;;;;;4996342;28;20359;-64
2022/04/24 05:03:31;;;;;;;;;;;;;;;;;;4993173;28;19917;-65
2022/04/24 05:05:57;;;;;;;;;;;;;;;;;;4979903;28;19917;-65
2022/04/24 05:08:23;;;;;;;;;;;;;;;;;;4975597;28;19909;-65
2022/04/24 05:10:49;;;;;;;;;;;;;;;;;;4992330;28;19918;-65
2022/04/24 05:13:15;;;;;;;;;;;;;;;;;;4993584;28;20008;-65
2022/04/24 05:15:41;;;;;;;;;;;;;;;;;;4990464;28;19939;-65
2022/04/24 05:18:07;;;;;;;;;;;;;;;;;;4997308;28;20464;-65
2022/04/24 05:20:33;;;;;;;;;;;;;;;;;;4994227;28;19917;-64
2022/04/24 05:22:59;;;;;;;;;;;;;;;;;;4976633;28;19924;-63
2022/04/24 05:25:25;;;;;;;;;;;;;;;;;;4993414;28;19975;-66
2022/04/24 05:27:51;;;;;;;;;;;;;;;;;;4994519;28;19913;-63
2022/04/24 05:30:17;;;;;;;;;;;;;;;;;;4995342;28;19921;-63
2022/04/24 05:32:46;;;;;;;;;;;;;;;;;;4980510;28;19917;-64
2022/04/24 05:35:12;;;;;;;;;;;;;;;;;;4999363;28;20472;-63
2022/04/24 05:37:40;;;;;;;;;;;;;;;;;;4974723;28;20024;-63
2022/04/24 05:40:06;;;;;;;;;;;;;;;;;;4992158;28;20149;-63
2022/04/24 05:42:32;;;;;;;;;;;;;;;;;;4992228;28;19921;-63
2022/04/24 05:44:58;;;;;;;;;;;;;;;;;;4998128;28;19920;-63
2022/04/24 05:47:23;;;;;;;;;;;;;;;;;;4992961;28;19913;-64
2022/04/24 05:49:49;;;;;;;;;;;;;;;;;;4994290;28;19923;-64
2022/04/24 05:52:15;;;;;;;;;;;;;;;;;;4998892;28;19920;-64
2022/04/24 05:54:41;;;;;;;;;;;;;;;;;;4989861;28;19963;-64
2022/04/24 05:57:07;;;;;;;;;;;;;;;;;;4993947;28;20697;-64
2022/04/24 05:59:33;;;;;;;;;;;;;;;;;;4993679;28;19966;-64
2022/04/24 06:01:59;;;;;;;;;;;;;;;;;;4978688;28;19909;-64
2022/04/24 06:04:26;;;;;;;;;;;;;;;;;;5000309;28;20367;-64
2022/04/24 06:06:52;;;;;;;;;;;;;;;;;;4978491;28;19914;-64
2022/04/24 06:09:19;;;;;;;;;;;;;;;;;;4993552;28;19920;-64
2022/04/24 06:11:45;;;;;;;;;;;;;;;;;;4981471;28;19912;-66
2022/04/24 06:14:11;;;;;;;;;;;;;;;;;;5002209;28;19955;-64
2022/04/24 06:16:37;;;;;;;;;;;;;;;;;;4974223;28;20564;-64
2022/04/24 06:19:03;;;;;;;;;;;;;;;;;;5002337;28;20361;-64
2022/04/24 06:21:29;;;;;;;;;;;;;;;;;;4999536;28;19917;-64
2022/04/24 06:23:55;;;;;;;;;;;;;;;;;;4986093;28;20733;-64
2022/04/24 06:26:21;;;;;;;;;;;;;;;;;;4980600;28;19917;-64
2022/04/24 06:28:47;;;;;;;;;;;;;;;;;;5003218;28;19920;-64
2022/04/24 06:31:13;;;;;;;;;;;;;;;;;;5004953;28;20382;-64
2022/04/24 06:33:39;;;;;;;;;;;;;;;;;;4996790;28;20011;-64
2022/04/24 06:36:05;;;;;;;;;;;;;;;;;;5000556;28;19920;-64
2022/04/24 06:38:31;;;;;;;;;;;;;;;;;;4997572;28;20010;-64
2022/04/24 06:40:57;;;;;;;;;;;;;;;;;;5002950;28;20529;-64
2022/04/24 06:43:23;;;;;;;;;;;;;;;;;;5000962;28;19920;-64
2022/04/24 06:45:49;;;;;;;;;;;;;;;;;;5003615;28;19925;-64
2022/04/24 06:48:15;;;;;;;;;;;;;;;;;;4999747;28;19914;-64
2022/04/24 06:50:41;;;;;;;;;;;;;;;;;;4992555;28;19921;-64
2022/04/24 06:53:07;;;;;;;;;;;;;;;;;;5001664;28;19920;-64
2022/04/24 06:55:33;;;;;;;;;;;;;;;;;;4983575;28;19913;-64
2022/04/24 06:57:59;;;;;;;;;;;;;;;;;;5005177;28;19948;-64
2022/04/24 07:00:26;;;;;;;;;;;;;;;;;;5002183;28;20040;-64
2022/04/24 07:02:53;;;;;;;;;;;;;;;;;;5005349;28;19952;-64
2022/04/24 07:05:19;;;;;;;;;;;;;;;;;;4997903;28;20008;-64
2022/04/24 07:07:45;;;;;;;;;;;;;;;;;;5004838;28;19917;-64
2022/04/24 07:10:11;;;;;;;;;;;;;;;;;;5009492;28;19932;-64
2022/04/24 07:12:37;;;;;;;;;;;;;;;;;;4990455;28;19916;-65
2022/04/24 07:15:03;;;;;;;;;;;;;;;;;;5004125;28;20425;-64
2022/04/24 07:17:29;;;;;;;;;;;;;;;;;;4999521;28;19912;-64
2022/04/24 07:19:55;;;;;;;;;;;;;;;;;;4995331;28;20091;-64
2022/04/24 07:22:20;;;;;;;;;;;;;;;;;;4983399;28;19913;-64
2022/04/24 07:24:47;;;;;;;;;;;;;;;;;;5002897;28;19913;-64
2022/04/24 07:27:13;;;;;;;;;;;;;;;;;;5005312;28;19928;-64
2022/04/24 07:29:39;;;;;;;;;;;;;;;;;;4981278;28;19913;-64
2022/04/24 07:32:07;;;;;;;;;;;;;;;;;;5003218;28;19923;-64
2022/04/24 07:34:33;;;;;;;;;;;;;;;;;;5004528;28;20381;-65
2022/04/24 07:36:59;;;;;;;;;;;;;;;;;;4992914;28;19924;-67
2022/04/24 07:39:25;;;;;;;;;;;;;;;;;;5003726;28;19912;-67
2022/04/24 07:41:51;;;;;;;;;;;;;;;;;;5005804;28;19920;-67
2022/04/24 07:44:17;;;;;;;;;;;;;;;;;;4979046;28;20058;-67
2022/04/24 07:46:43;;;;;;;;;;;;;;;;;;5003887;28;20557;-66
2022/04/24 07:49:09;;;;;;;;;;;;;;;;;;4989107;28;19920;-67
2022/04/24 07:51:35;;;;;;;;;;;;;;;;;;5002914;28;20284;-66
2022/04/24 07:54:01;;;;;;;;;;;;;;;;;;5006166;28;20020;-66
2022/04/24 07:56:27;;;;;;;;;;;;;;;;;;4982932;28;19917;-66
2022/04/24 07:58:53;;;;;;;;;;;;;;;;;;5003952;28;20466;-66
2022/04/24 08:01:19;;;;;;;;;;;;;;;;;;5002559;28;19913;-67
2022/04/24 08:03:45;;;;;;;;;;;;;;;;;;4987509;28;19947;-67
2022/04/24 08:06:11;;;;;;;;;;;;;;;;;;5004543;28;19927;-67
2022/04/24 08:08:37;;;;;;;;;;;;;;;;;;5000494;28;22644;-67
2022/04/24 08:11:03;;;;;;;;;;;;;;;;;;5002770;28;19916;-66
2022/04/24 08:13:29;;;;;;;;;;;;;;;;;;5001162;28;20197;-67
2022/04/24 08:15:57;;;;;;;;;;;;;;;;;;5002803;28;20278;-66
2022/04/24 08:18:23;;;;;;;;;;;;;;;;;;5000880;28;19921;-67
2022/04/24 08:20:49;;;;;;;;;;;;;;;;;;5001321;28;19944;-67
2022/04/24 08:23:16;;;;;;;;;;;;;;;;;;4983979;28;20035;-67
2022/04/24 08:25:42;;;;;;;;;;;;;;;;;;5003271;28;19913;-67
2022/04/24 08:28:08;;;;;;;;;;;;;;;;;;4995668;28;19919;-66
2022/04/24 08:30:34;;;;;;;;;;;;;;;;;;4997431;28;19924;-67
2022/04/24 08:33:00;;;;;;;;;;;;;;;;;;4979644;28;19917;-66
2022/04/24 08:35:35;;;;;;;;;;;;;;;;;;4996901;28;19917;-67
2022/04/24 08:38:01;;;;;;;;;;;;;;;;;;4994564;28;19944;-67
2022/04/24 08:40:27;;;;;;;;;;;;;;;;;;4992141;28;19924;-67
2022/04/24 08:42:54;;;;;;;;;;;;;;;;;;5007366;28;19912;-68
2022/04/24 08:45:20;;;;;;;;;;;;;;;;;;4976980;28;19913;-69
2022/04/24 08:47:46;;;;;;;;;;;;;;;;;;4996904;28;19919;-69
2022/04/24 08:50:12;;;;;;;;;;;;;;;;;;4981882;28;20568;-69
2022/04/24 08:52:38;;;;;;;;;;;;;;;;;;4997535;28;19921;-71
2022/04/24 08:55:04;;;;;;;;;;;;;;;;;;4999266;28;19918;-71
2022/04/24 08:57:30;;;;;;;;;;;;;;;;;;4998580;28;20295;-68
2022/04/24 08:59:56;;;;;;;;;;;;;;;;;;5000458;28;20400;-69
2022/04/24 09:02:22;;;;;;;;;;;;;;;;;;4996816;28;20123;-70
2022/04/24 09:04:48;;;;;;;;;;;;;;;;;;4999607;28;20550;-70
2022/04/24 09:07:17;;;;;;;;;;;;;;;;;;4997429;28;19925;-69
2022/04/24 09:09:44;;;;;;;;;;;;;;;;;;4978382;28;19920;-69
2022/04/24 09:12:10;;;;;;;;;;;;;;;;;;4993773;28;19921;-69
2022/04/24 09:14:36;;;;;;;;;;;;;;;;;;4987306;28;19945;-69
2022/04/24 09:17:04;;;;;;;;;;;;;;;;;;4996941;28;20106;-69
2022/04/24 09:19:30;;;;;;;;;;;;;;;;;;4993271;28;20213;-69
2022/04/24 09:21:56;;;;;;;;;;;;;;;;;;4982848;28;19961;-71
2022/04/24 09:24:22;;;;;;;;;;;;;;;;;;4995149;28;20430;-69
2022/04/24 09:26:48;;;;;;;;;;;;;;;;;;4994365;28;19913;-69
2022/04/24 09:29:14;;;;;;;;;;;;;;;;;;4997759;28;19913;-70
2022/04/24 09:31:40;;;;;;;;;;;;;;;;;;4997603;28;20603;-68
2022/04/24 09:34:06;;;;;;;;;;;;;;;;;;5001729;28;20671;-69
2022/04/24 09:36:32;;;;;;;;;;;;;;;;;;4996012;28;20240;-69
2022/04/24 09:38:58;;;;;;;;;;;;;;;;;;5000635;28;19917;-69
2022/04/24 09:41:24;;;;;;;;;;;;;;;;;;4994973;28;20605;-69
2022/04/24 09:43:50;;;;;;;;;;;;;;;;;;4981736;28;19921;-69
2022/04/24 09:46:16;;;;;;;;;;;;;;;;;;4999826;28;20331;-69
2022/04/24 09:48:42;;;;;;;;;;;;;;;;;;4999373;28;20518;-69
2022/04/24 09:51:09;;;;;;;;;;;;;;;;;;5002793;28;20218;-68
2022/04/24 09:53:35;;;;;;;;;;;;;;;;;;4977508;28;20450;-69
2022/04/24 09:56:02;;;;;;;;;;;;;;;;;;5002723;28;20187;-67
2022/04/24 09:58:28;;;;;;;;;;;;;;;;;;4959396;28;19913;-67
2022/04/24 10:00:54;;;;;;;;;;;;;;;;;;4989336;28;20184;-67
2022/04/24 10:03:20;;;;;;;;;;;;;;;;;;4997904;28;20644;-66
2022/04/24 10:05:47;;;;;;;;;;;;;;;;;;5007018;28;19913;-68
2022/04/24 10:08:13;;;;;;;;;;;;;;;;;;5003576;28;19916;-69
2022/04/24 10:10:39;;;;;;;;;;;;;;;;;;5002599;28;20177;-67
2022/04/24 10:13:05;;;;;;;;;;;;;;;;;;5003070;28;19952;-67
2022/04/24 10:15:32;;;;;;;;;;;;;;;;;;4997185;28;20062;-67
2022/04/24 10:17:58;;;;;;;;;;;;;;;;;;5015109;28;19912;-67
2022/04/24 10:20:24;;;;;;;;;;;;;;;;;;4993124;28;19971;-67
2022/04/24 10:22:50;;;;;;;;;;;;;;;;;;4996486;28;19920;-68
2022/04/24 10:25:16;;;;;;;;;;;;;;;;;;5007500;28;19943;-68
2022/04/24 10:27:42;;;;;;;;;;;;;;;;;;5010108;28;20322;-68
2022/04/24 10:30:08;;;;;;;;;;;;;;;;;;4990337;28;19937;-69
2022/04/24 10:32:35;;;;;;;;;;;;;;;;;;5000023;28;19923;-68
2022/04/24 10:35:01;;;;;;;;;;;;;;;;;;4955659;28;19913;-68
2022/04/24 10:37:27;;;;;;;;;;;;;;;;;;4944016;28;20983;-68
2022/04/24 10:39:53;;;;;;;;;;;;;;;;;;4974464;28;20337;-68
2022/04/24 10:42:19;;;;;;;;;;;;;;;;;;4952033;28;19916;-66
2022/04/24 10:44:45;;;;;;;;;;;;;;;;;;4971348;28;20098;-67
2022/04/24 10:47:11;;;;;;;;;;;;;;;;;;4947187;28;20750;-67
2022/04/24 10:49:37;;;;;;;;;;;;;;;;;;4957559;28;20199;-68
2022/04/24 10:52:03;;;;;;;;;;;;;;;;;;4971025;28;20125;-69
2022/04/24 10:54:29;;;;;;;;;;;;;;;;;;4966574;28;21175;-67
2022/04/24 10:56:55;;;;;;;;;;;;;;;;;;4958641;28;19921;-67
2022/04/24 10:59:22;;;;;;;;;;;;;;;;;;4951412;28;20355;-66
2022/04/24 11:01:48;;;;;;;;;;;;;;;;;;4958941;28;20186;-68
2022/04/24 11:04:16;;;;;;;;;;;;;;;;;;4936680;28;20553;-68
2022/04/24 11:06:42;;;;;;;;;;;;;;;;;;4951299;28;19921;-68
2022/04/24 11:09:09;;;;;;;;;;;;;;;;;;4951644;28;19913;-67
2022/04/24 11:11:36;;;;;;;;;;;;;;;;;;4991001;28;19913;-67
2022/04/24 11:14:02;;;;;;;;;;;;;;;;;;5003768;28;19924;-66
2022/04/24 11:16:28;;;;;;;;;;;;;;;;;;4999014;28;19917;-66
2022/04/24 11:18:54;;;;;;;;;;;;;;;;;;5005779;28;20027;-68
2022/04/24 11:21:21;;;;;;;;;;;;;;;;;;4998261;28;19985;-65
2022/04/24 11:23:47;;;;;;;;;;;;;;;;;;5002069;28;19913;-68
2022/04/24 11:26:14;;;;;;;;;;;;;;;;;;5008119;28;19919;-68
2022/04/24 11:28:40;;;;;;;;;;;;;;;;;;4991012;28;19913;-69
2022/04/24 11:31:06;;;;;;;;;;;;;;;;;;5011150;28;19920;-68
2022/04/24 11:33:32;;;;;;;;;;;;;;;;;;5008860;28;19916;-66
2022/04/24 11:35:58;;;;;;;;;;;;;;;;;;5010422;28;19913;-67
2022/04/24 11:38:24;;;;;;;;;;;;;;;;;;5013156;28;20039;-69
2022/04/24 11:40:50;;;;;;;;;;;;;;;;;;5011511;28;19916;-70
2022/04/24 11:43:16;;;;;;;;;;;;;;;;;;5015130;28;19978;-71
2022/04/24 11:51:11;;;;;;;;;;;;;;;;;;5012306;28;20127;-70
2022/04/24 11:53:37;;;;;;;;;;;;;;;;;;4990684;28;19924;-70
2022/04/24 11:56:03;;;;;;;;;;;;;;;;;;4988233;28;19925;-70
2022/04/24 11:58:29;;;;;;;;;;;;;;;;;;4989073;28;19935;-70
2022/04/24 12:00:56;;;;;;;;;;;;;;;;;;4990351;28;19920;-70
2022/04/24 12:03:23;;;;;;;;;;;;;;;;;;4984252;28;19952;-70
2022/04/24 12:05:50;;;;;;;;;;;;;;;;;;4987853;28;19914;-69
2022/04/24 12:08:16;;;;;;;;;;;;;;;;;;4974900;28;19988;-69
2022/04/24 12:10:42;;;;;;;;;;;;;;;;;;4970905;28;20343;-69
2022/04/24 12:13:09;;;;;;;;;;;;;;;;;;4972263;28;19924;-70
2022/04/24 12:15:35;;;;;;;;;;;;;;;;;;4985907;28;19971;-70
2022/04/24 12:18:01;;;;;;;;;;;;;;;;;;4976400;28;20124;-69
2022/04/24 12:20:27;;;;;;;;;;;;;;;;;;4989490;28;19916;-70
2022/04/24 12:22:53;;;;;;;;;;;;;;;;;;4976680;28;19953;-69
2022/04/24 12:25:19;;;;;;;;;;;;;;;;;;4991573;28;19925;-69
2022/04/24 12:27:45;;;;;;;;;;;;;;;;;;4968920;28;19975;-70
2022/04/24 12:30:11;;;;;;;;;;;;;;;;;;4985294;28;19921;-70
2022/04/24 12:32:38;;;;;;;;;;;;;;;;;;4984270;28;19925;-69
2022/04/24 12:35:04;;;;;;;;;;;;;;;;;;4984440;28;19949;-68
2022/04/24 12:37:30;;;;;;;;;;;;;;;;;;4982150;28;20013;-70
2022/04/24 12:39:56;;;;;;;;;;;;;;;;;;4983757;28;19941;-70
2022/04/24 12:42:22;;;;;;;;;;;;;;;;;;4982309;28;20801;-71
2022/04/24 12:44:48;;;;;;;;;;;;;;;;;;4975240;28;20329;-70
2022/04/24 12:47:14;;;;;;;;;;;;;;;;;;4962558;28;20283;-69
2022/04/24 12:49:40;;;;;;;;;;;;;;;;;;4972231;28;19921;-68
2022/04/24 12:52:07;;;;;;;;;;;;;;;;;;4989815;28;19960;-70
2022/04/24 12:54:33;;;;;;;;;;;;;;;;;;4969393;28;19941;-69
2022/04/24 12:56:59;;;;;;;;;;;;;;;;;;4993845;28;19960;-69
2022/04/24 12:59:25;;;;;;;;;;;;;;;;;;4996213;28;20486;-70
2022/04/24 13:01:52;;;;;;;;;;;;;;;;;;4985130;28;19919;-70
2022/04/24 13:04:21;;;;;;;;;;;;;;;;;;5005044;28;19917;-70
2022/04/24 13:06:47;;;;;;;;;;;;;;;;;;5008901;28;20560;-70
2022/04/24 13:09:13;;;;;;;;;;;;;;;;;;5010524;28;20023;-67
2022/04/24 13:11:39;;;;;;;;;;;;;;;;;;5004077;28;20397;-67
2022/04/24 13:14:05;;;;;;;;;;;;;;;;;;4998078;28;19917;-70
2022/04/24 13:19:15;;;;;;;;;;;;;;;;;;5003382;28;19920;-70
2022/04/24 13:21:42;;;;;;;;;;;;;;;;;;4997302;28;19913;-70
2022/04/24 13:24:08;;;;;;;;;;;;;;;;;;5004162;28;19917;-71
2022/04/24 13:26:34;;;;;;;;;;;;;;;;;;4996810;28;19920;-70
2022/04/24 13:29:00;;;;;;;;;;;;;;;;;;4987359;28;19913;-69
2022/04/24 13:31:26;;;;;;;;;;;;;;;;;;5001595;28;20274;-69
2022/04/24 13:33:52;;;;;;;;;;;;;;;;;;4997338;28;19944;-69
2022/04/24 13:36:18;;;;;;;;;;;;;;;;;;4979305;28;19917;-69
2022/04/24 13:38:44;;;;;;;;;;;;;;;;;;4981035;28;19913;-71
2022/04/24 13:41:10;;;;;;;;;;;;;;;;;;5001176;28;19961;-69
2022/04/24 13:43:36;;;;;;;;;;;;;;;;;;4998964;28;19967;-71
2022/04/24 13:46:03;;;;;;;;;;;;;;;;;;5007624;28;19986;-70
2022/04/24 13:48:30;;;;;;;;;;;;;;;;;;4984723;28;20488;-70
2022/04/24 13:50:56;;;;;;;;;;;;;;;;;;4992513;28;19913;-70
2022/04/24 13:53:22;;;;;;;;;;;;;;;;;;5004988;28;19947;-70
2022/04/24 13:55:48;;;;;;;;;;;;;;;;;;4982396;28;19913;-70
2022/04/24 13:58:17;;;;;;;;;;;;;;;;;;5005506;28;19971;-70
2022/04/24 14:00:44;;;;;;;;;;;;;;;;;;4997476;28;20565;-71
2022/04/24 14:03:12;;;;;;;;;;;;;;;;;;5005200;28;19966;-69
2022/04/24 14:05:38;;;;;;;;;;;;;;;;;;4983921;28;21758;-69
2022/04/24 14:08:04;;;;;;;;;;;;;;;;;;4982982;28;19917;-70
2022/04/24 14:10:30;;;;;;;;;;;;;;;;;;4999523;28;19919;-69
2022/04/24 14:12:56;;;;;;;;;;;;;;;;;;4998298;28;19917;-70
2022/04/24 14:15:28;;;;;;;;;;;;;;;;;;4993743;28;19917;-69
2022/04/24 14:17:57;;;;;;;;;;;;;;;;;;4979268;28;19920;-70
2022/04/24 14:20:23;;;;;;;;;;;;;;;;;;4982292;28;20777;-69
2022/04/24 14:22:49;;;;;;;;;;;;;;;;;;5003651;28;20610;-70
2022/04/24 14:25:15;;;;;;;;;;;;;;;;;;5003401;28;19917;-70
2022/04/24 14:27:41;;;;;;;;;;;;;;;;;;4995526;28;19963;-70
2022/04/24 14:30:10;;;;;;;;;;;;;;;;;;5001963;28;20004;-70
2022/04/24 14:32:35;;;;;;;;;;;;;;;;;;4989141;28;19917;-70
2022/04/24 14:35:01;;;;;;;;;;;;;;;;;;5010608;28;19920;-71
2022/04/24 14:37:28;;;;;;;;;;;;;;;;;;4992940;28;19983;-70
2022/04/24 14:39:56;;;;;;;;;;;;;;;;;;5017600;28;19923;-67
2022/04/24 14:42:22;;;;;;;;;;;;;;;;;;5004336;28;20458;-67
2022/04/24 14:44:48;;;;;;;;;;;;;;;;;;5010518;28;19909;-66
2022/04/24 14:55:47;;;;;;;;;;;;;;;;;;4999600;28;20035;-65
2022/04/24 14:58:13;;;;;;;;;;;;;;;;;;4982195;28;20889;-67
2022/04/24 15:00:40;;;;;;;;;;;;;;;;;;4980217;28;19918;-66
2022/04/24 15:03:06;;;;;;;;;;;;;;;;;;4983525;28;19921;-66
2022/04/24 15:05:32;;;;;;;;;;;;;;;;;;4982217;28;19914;-66
2022/04/24 15:07:59;;;;;;;;;;;;;;;;;;4985874;28;19917;-66
2022/04/24 15:10:25;;;;;;;;;;;;;;;;;;4987209;28;20527;-66
2022/04/24 15:12:51;;;;;;;;;;;;;;;;;;4983949;28;19955;-66
2022/04/24 15:15:18;;;;;;;;;;;;;;;;;;4980363;28;19960;-69
2022/04/24 15:17:44;;;;;;;;;;;;;;;;;;4971691;28;20023;-69
2022/04/24 15:20:10;;;;;;;;;;;;;;;;;;4968587;28;20442;-70
2022/04/24 15:22:36;;;;;;;;;;;;;;;;;;4979009;28;20031;-69
2022/04/24 15:25:02;;;;;;;;;;;;;;;;;;4971730;28;20781;-69
2022/04/24 15:27:28;;;;;;;;;;;;;;;;;;4980557;28;19909;-69
2022/04/24 15:29:54;;;;;;;;;;;;;;;;;;4983032;28;19924;-69
2022/04/24 15:32:20;;;;;;;;;;;;;;;;;;4967192;28;19917;-69
2022/04/24 15:34:46;;;;;;;;;;;;;;;;;;4970903;28;20619;-69
2022/04/24 15:37:12;;;;;;;;;;;;;;;;;;4989623;28;20343;-69
2022/04/24 15:39:38;;;;;;;;;;;;;;;;;;4976187;28;21173;-70
2022/04/24 15:42:05;;;;;;;;;;;;;;;;;;4980294;28;19919;-69
2022/04/24 15:45:10;;;;;;;;;;;;;;;;;;4958626;28;19913;-69
2022/04/24 15:47:17;;;;;;;;;;;;;;;;;;4983899;28;19942;-69
2022/04/24 15:49:44;;;;;;;;;;;;;;;;;;4983423;28;19917;-70
2022/04/24 15:52:10;;;;;;;;;;;;;;;;;;4981339;28;20034;-70
2022/04/24 15:54:36;;;;;;;;;;;;;;;;;;4978808;28;20439;-71
2022/04/24 15:57:02;;;;;;;;;;;;;;;;;;4991950;28;19960;-70
2022/04/24 15:59:28;;;;;;;;;;;;;;;;;;4994310;28;20198;-70
2022/04/24 16:01:53;;;;;;;;;;;;;;;;;;4992600;28;19924;-70
2022/04/24 16:04:20;;;;;;;;;;;;;;;;;;4973660;28;20233;-69
2022/04/24 16:06:46;;;;;;;;;;;;;;;;;;4976702;28;20035;-68
2022/04/24 16:09:12;;;;;;;;;;;;;;;;;;4997791;28;19919;-71
2022/04/24 16:11:38;;;;;;;;;;;;;;;;;;4992128;28;19913;-69
2022/04/24 16:14:04;;;;;;;;;;;;;;;;;;4994411;28;19917;-69
2022/04/24 16:16:30;;;;;;;;;;;;;;;;;;4992826;28;19920;-69
2022/04/24 16:18:56;;;;;;;;;;;;;;;;;;4978603;28;19970;-69
2022/04/24 16:21:22;;;;;;;;;;;;;;;;;;4992389;28;20218;-71
2022/04/24 16:23:48;;;;;;;;;;;;;;;;;;4974818;28;20740;-70
2022/04/24 16:26:15;;;;;;;;;;;;;;;;;;4974303;28;19913;-70
2022/04/24 16:28:41;;;;;;;;;;;;;;;;;;4995862;28;19919;-70
2022/04/24 16:31:07;;;;;;;;;;;;;;;;;;5000847;28;19912;-70
2022/04/24 16:33:33;;;;;;;;;;;;;;;;;;5000763;28;19917;-70
2022/04/24 16:36:00;;;;;;;;;;;;;;;;;;4998645;28;19920;-68
2022/04/24 16:38:26;;;;;;;;;;;;;;;;;;4997055;28;19987;-70
2022/04/24 16:40:52;;;;;;;;;;;;;;;;;;5003468;28;20350;-70
2022/04/24 16:43:18;;;;;;;;;;;;;;;;;;4986589;28;20536;-70
2022/04/24 16:45:44;;;;;;;;;;;;;;;;;;4984619;28;19913;-70
2022/04/24 16:48:12;;;;;;;;;;;;;;;;;;4998773;28;20445;-71
2022/04/24 16:58:53;;;;;;;;;;;;;;;;;;5000951;28;20012;-70
2022/04/24 17:01:19;;;;;;;;;;;;;;;;;;5000126;28;19921;-70
2022/04/24 17:03:45;;;;;;;;;;;;;;;;;;4999186;28;20369;-70